sensor_id;sensor_type;location;lat;lon;timestamp;P1;durP1;ratioP1;P2;durP2;ratioP2
27187;SDS011;14708;50.872;5.306;2023-02-15T00:01:40;36.95;;;30.60;;
27187;SDS011;14708;50.872;5.306;2023-02-15T00:04:07;37.10;;;30.67;;
27187;SDS011;14708;50.872;5.306;2023-02-15T00:06:33;36.75;;;30.67;;
27187;SDS011;14708;50.872;5.306;2023-02-15T00:08:59;42.15;;;32.20;;
27187;SDS011;14708;50.872;5.306;2023-02-15T00:11:25;39.20;;;32.05;;
27187;SDS011;14708;50.872;5.306;2023-02-15T00:14:21;37.78;;;31.35;;
27187;SDS011;14708;50.872;5.306;2023-02-15T00:16:48;36.55;;;29.60;;
27187;SDS011;14708;50.872;5.306;2023-02-15T00:19:19;34.20;;;28.77;;
27187;SDS011;14708;50.872;5.306;2023-02-15T00:21:46;35.50;;;29.70;;
27187;SDS011;14708;50.872;5.306;2023-02-15T00:24:13;37.50;;;30.38;;
27187;SDS011;14708;50.872;5.306;2023-02-15T00:26:40;36.55;;;29.50;;
27187;SDS011;14708;50.872;5.306;2023-02-15T00:29:07;36.35;;;29.52;;
27187;SDS011;14708;50.872;5.306;2023-02-15T00:43:42;34.25;;;29.15;;
27187;SDS011;14708;50.872;5.306;2023-02-15T00:46:07;34.20;;;27.35;;
27187;SDS011;14708;50.872;5.306;2023-02-15T00:48:33;33.38;;;28.38;;
27187;SDS011;14708;50.872;5.306;2023-02-15T00:50:59;33.47;;;28.52;;
27187;SDS011;14708;50.872;5.306;2023-02-15T00:56:32;35.75;;;28.90;;
27187;SDS011;14708;50.872;5.306;2023-02-15T00:58:57;33.47;;;27.65;;
27187;SDS011;14708;50.872;5.306;2023-02-15T01:01:23;36.35;;;28.83;;
27187;SDS011;14708;50.872;5.306;2023-02-15T01:03:50;35.15;;;28.52;;
27187;SDS011;14708;50.872;5.306;2023-02-15T01:19:43;32.15;;;26.73;;
27187;SDS011;14708;50.872;5.306;2023-02-15T01:22:09;35.60;;;28.25;;
27187;SDS011;14708;50.872;5.306;2023-02-15T01:24:35;33.60;;;27.50;;
27187;SDS011;14708;50.872;5.306;2023-02-15T01:27:00;29.65;;;25.20;;
27187;SDS011;14708;50.872;5.306;2023-02-15T01:29:31;30.05;;;25.60;;
27187;SDS011;14708;50.872;5.306;2023-02-15T01:31:57;30.40;;;25.67;;
27187;SDS011;14708;50.872;5.306;2023-02-15T01:34:22;29.88;;;25.15;;
27187;SDS011;14708;50.872;5.306;2023-02-15T01:36:48;30.60;;;24.85;;
27187;SDS011;14708;50.872;5.306;2023-02-15T01:39:13;29.23;;;26.00;;
27187;SDS011;14708;50.872;5.306;2023-02-15T01:41:39;31.23;;;25.35;;
27187;SDS011;14708;50.872;5.306;2023-02-15T01:47:09;29.02;;;24.63;;
27187;SDS011;14708;50.872;5.306;2023-02-15T01:49:48;30.73;;;25.35;;
27187;SDS011;14708;50.872;5.306;2023-02-15T01:52:20;29.50;;;25.13;;
27187;SDS011;14708;50.872;5.306;2023-02-15T01:54:52;34.95;;;27.58;;
27187;SDS011;14708;50.872;5.306;2023-02-15T01:57:18;31.95;;;26.27;;
27187;SDS011;14708;50.872;5.306;2023-02-15T01:59:49;30.90;;;24.63;;
27187;SDS011;14708;50.872;5.306;2023-02-15T02:02:19;29.17;;;24.98;;
27187;SDS011;14708;50.872;5.306;2023-02-15T02:08:14;31.60;;;25.63;;
27187;SDS011;14708;50.872;5.306;2023-02-15T02:10:40;31.30;;;24.88;;
27187;SDS011;14708;50.872;5.306;2023-02-15T02:13:05;30.05;;;24.10;;
27187;SDS011;14708;50.872;5.306;2023-02-15T02:18:06;28.80;;;23.17;;
27187;SDS011;14708;50.872;5.306;2023-02-15T02:41:44;26.65;;;21.60;;
27187;SDS011;14708;50.872;5.306;2023-02-15T02:44:23;26.25;;;21.83;;
27187;SDS011;14708;50.872;5.306;2023-02-15T02:47:12;25.25;;;21.38;;
27187;SDS011;14708;50.872;5.306;2023-02-15T03:10:02;26.58;;;22.58;;
27187;SDS011;14708;50.872;5.306;2023-02-15T03:12:34;25.52;;;22.20;;
27187;SDS011;14708;50.872;5.306;2023-02-15T03:17:43;25.73;;;22.10;;
27187;SDS011;14708;50.872;5.306;2023-02-15T03:20:30;25.17;;;20.27;;
27187;SDS011;14708;50.872;5.306;2023-02-15T03:22:59;25.42;;;22.02;;
27187;SDS011;14708;50.872;5.306;2023-02-15T03:25:48;25.25;;;22.15;;
27187;SDS011;14708;50.872;5.306;2023-02-15T03:28:23;22.60;;;19.48;;
27187;SDS011;14708;50.872;5.306;2023-02-15T03:30:57;24.08;;;20.80;;
27187;SDS011;14708;50.872;5.306;2023-02-15T03:36:33;23.57;;;20.03;;
27187;SDS011;14708;50.872;5.306;2023-02-15T03:41:40;23.73;;;21.10;;
27187;SDS011;14708;50.872;5.306;2023-02-15T03:57:53;22.30;;;19.23;;
27187;SDS011;14708;50.872;5.306;2023-02-15T04:00:38;23.48;;;20.60;;
27187;SDS011;14708;50.872;5.306;2023-02-15T04:03:32;21.35;;;18.13;;
27187;SDS011;14708;50.872;5.306;2023-02-15T04:06:03;23.70;;;19.75;;
27187;SDS011;14708;50.872;5.306;2023-02-15T04:08:29;21.90;;;19.42;;
27187;SDS011;14708;50.872;5.306;2023-02-15T04:11:13;22.60;;;19.35;;
27187;SDS011;14708;50.872;5.306;2023-02-15T04:13:39;23.23;;;20.60;;
27187;SDS011;14708;50.872;5.306;2023-02-15T04:22:48;22.63;;;19.13;;
27187;SDS011;14708;50.872;5.306;2023-02-15T04:25:32;23.27;;;19.58;;
27187;SDS011;14708;50.872;5.306;2023-02-15T04:27:58;21.15;;;18.80;;
27187;SDS011;14708;50.872;5.306;2023-02-15T04:30:24;20.83;;;18.27;;
27187;SDS011;14708;50.872;5.306;2023-02-15T04:36:13;21.05;;;18.27;;
27187;SDS011;14708;50.872;5.306;2023-02-15T04:38:38;19.83;;;17.13;;
27187;SDS011;14708;50.872;5.306;2023-02-15T04:41:04;20.90;;;17.95;;
27187;SDS011;14708;50.872;5.306;2023-02-15T04:43:30;22.38;;;18.77;;
27187;SDS011;14708;50.872;5.306;2023-02-15T04:45:55;21.67;;;18.80;;
27187;SDS011;14708;50.872;5.306;2023-02-15T04:48:30;21.48;;;18.15;;
27187;SDS011;14708;50.872;5.306;2023-02-15T04:50:55;22.10;;;19.27;;
27187;SDS011;14708;50.872;5.306;2023-02-15T04:53:21;20.90;;;18.20;;
27187;SDS011;14708;50.872;5.306;2023-02-15T04:55:47;21.45;;;18.27;;
27187;SDS011;14708;50.872;5.306;2023-02-15T04:58:13;20.33;;;18.13;;
27187;SDS011;14708;50.872;5.306;2023-02-15T05:00:57;20.23;;;18.10;;
27187;SDS011;14708;50.872;5.306;2023-02-15T05:03:23;19.73;;;17.63;;
27187;SDS011;14708;50.872;5.306;2023-02-15T05:05:50;20.88;;;18.38;;
27187;SDS011;14708;50.872;5.306;2023-02-15T05:08:16;21.08;;;17.77;;
27187;SDS011;14708;50.872;5.306;2023-02-15T05:10:41;19.63;;;16.70;;
27187;SDS011;14708;50.872;5.306;2023-02-15T05:13:07;21.45;;;17.95;;
27187;SDS011;14708;50.872;5.306;2023-02-15T05:15:33;21.15;;;17.80;;
27187;SDS011;14708;50.872;5.306;2023-02-15T05:17:58;20.13;;;17.40;;
27187;SDS011;14708;50.872;5.306;2023-02-15T05:20:24;19.60;;;17.17;;
27187;SDS011;14708;50.872;5.306;2023-02-15T05:22:53;19.80;;;17.35;;
27187;SDS011;14708;50.872;5.306;2023-02-15T05:25:19;19.08;;;17.05;;
27187;SDS011;14708;50.872;5.306;2023-02-15T05:28:04;20.67;;;17.02;;
27187;SDS011;14708;50.872;5.306;2023-02-15T05:30:45;20.70;;;16.73;;
27187;SDS011;14708;50.872;5.306;2023-02-15T05:33:15;18.58;;;16.35;;
27187;SDS011;14708;50.872;5.306;2023-02-15T05:35:41;18.98;;;16.65;;
27187;SDS011;14708;50.872;5.306;2023-02-15T05:38:09;19.65;;;16.17;;
27187;SDS011;14708;50.872;5.306;2023-02-15T05:40:35;18.92;;;16.92;;
27187;SDS011;14708;50.872;5.306;2023-02-15T05:43:01;18.55;;;16.48;;
27187;SDS011;14708;50.872;5.306;2023-02-15T05:45:26;21.00;;;18.05;;
27187;SDS011;14708;50.872;5.306;2023-02-15T05:47:52;17.88;;;15.82;;
27187;SDS011;14708;50.872;5.306;2023-02-15T05:53:39;19.85;;;16.23;;
27187;SDS011;14708;50.872;5.306;2023-02-15T05:56:06;18.67;;;16.55;;
27187;SDS011;14708;50.872;5.306;2023-02-15T05:58:37;18.98;;;16.58;;
27187;SDS011;14708;50.872;5.306;2023-02-15T06:01:22;19.35;;;17.23;;
27187;SDS011;14708;50.872;5.306;2023-02-15T06:03:48;18.08;;;15.73;;
27187;SDS011;14708;50.872;5.306;2023-02-15T06:06:16;19.42;;;16.00;;
27187;SDS011;14708;50.872;5.306;2023-02-15T06:08:49;19.38;;;16.38;;
27187;SDS011;14708;50.872;5.306;2023-02-15T06:11:14;17.05;;;15.25;;
27187;SDS011;14708;50.872;5.306;2023-02-15T06:20:24;17.08;;;15.00;;
27187;SDS011;14708;50.872;5.306;2023-02-15T06:22:50;17.33;;;15.43;;
27187;SDS011;14708;50.872;5.306;2023-02-15T06:25:15;17.52;;;15.00;;
27187;SDS011;14708;50.872;5.306;2023-02-15T06:27:44;18.20;;;15.80;;
27187;SDS011;14708;50.872;5.306;2023-02-15T06:36:53;16.00;;;14.10;;
27187;SDS011;14708;50.872;5.306;2023-02-15T06:39:19;18.05;;;15.43;;
27187;SDS011;14708;50.872;5.306;2023-02-15T06:41:44;16.98;;;14.98;;
27187;SDS011;14708;50.872;5.306;2023-02-15T06:44:10;16.38;;;14.55;;
27187;SDS011;14708;50.872;5.306;2023-02-15T06:46:54;17.85;;;14.73;;
27187;SDS011;14708;50.872;5.306;2023-02-15T06:49:19;17.35;;;14.38;;
27187;SDS011;14708;50.872;5.306;2023-02-15T06:51:45;16.65;;;14.85;;
27187;SDS011;14708;50.872;5.306;2023-02-15T06:54:11;16.50;;;14.57;;
27187;SDS011;14708;50.872;5.306;2023-02-15T06:56:36;15.60;;;13.90;;
27187;SDS011;14708;50.872;5.306;2023-02-15T06:59:03;17.35;;;15.10;;
27187;SDS011;14708;50.872;5.306;2023-02-15T07:01:29;16.67;;;14.45;;
27187;SDS011;14708;50.872;5.306;2023-02-15T07:10:57;18.20;;;14.48;;
27187;SDS011;14708;50.872;5.306;2023-02-15T07:13:42;18.02;;;13.93;;
27187;SDS011;14708;50.872;5.306;2023-02-15T07:16:08;15.68;;;13.82;;
27187;SDS011;14708;50.872;5.306;2023-02-15T07:18:34;16.90;;;13.55;;
27187;SDS011;14708;50.872;5.306;2023-02-15T07:21:00;20.58;;;12.60;;
27187;SDS011;14708;50.872;5.306;2023-02-15T07:23:28;20.05;;;13.85;;
27187;SDS011;14708;50.872;5.306;2023-02-15T07:25:59;19.20;;;13.98;;
27187;SDS011;14708;50.872;5.306;2023-02-15T07:28:26;19.10;;;13.02;;
27187;SDS011;14708;50.872;5.306;2023-02-15T07:30:52;21.38;;;13.25;;
27187;SDS011;14708;50.872;5.306;2023-02-15T07:33:18;18.75;;;12.27;;
27187;SDS011;14708;50.872;5.306;2023-02-15T07:35:50;17.08;;;11.82;;
27187;SDS011;14708;50.872;5.306;2023-02-15T07:38:17;21.92;;;13.18;;
27187;SDS011;14708;50.872;5.306;2023-02-15T07:40:49;21.20;;;13.18;;
27187;SDS011;14708;50.872;5.306;2023-02-15T07:43:15;19.33;;;12.10;;
27187;SDS011;14708;50.872;5.306;2023-02-15T07:45:41;17.05;;;12.07;;
27187;SDS011;14708;50.872;5.306;2023-02-15T07:48:06;19.73;;;13.07;;
27187;SDS011;14708;50.872;5.306;2023-02-15T07:50:32;17.00;;;12.30;;
27187;SDS011;14708;50.872;5.306;2023-02-15T07:53:00;17.30;;;11.57;;
27187;SDS011;14708;50.872;5.306;2023-02-15T07:55:44;17.30;;;11.27;;
27187;SDS011;14708;50.872;5.306;2023-02-15T07:58:10;18.60;;;12.13;;
27187;SDS011;14708;50.872;5.306;2023-02-15T08:00:36;15.68;;;11.43;;
27187;SDS011;14708;50.872;5.306;2023-02-15T08:03:24;16.88;;;11.38;;
27187;SDS011;14708;50.872;5.306;2023-02-15T08:05:57;17.35;;;12.45;;
27187;SDS011;14708;50.872;5.306;2023-02-15T08:08:25;18.75;;;11.85;;
27187;SDS011;14708;50.872;5.306;2023-02-15T08:14:22;19.88;;;11.32;;
27187;SDS011;14708;50.872;5.306;2023-02-15T08:19:28;18.77;;;10.90;;
27187;SDS011;14708;50.872;5.306;2023-02-15T08:22:00;16.75;;;10.63;;
27187;SDS011;14708;50.872;5.306;2023-02-15T08:24:29;18.75;;;11.63;;
27187;SDS011;14708;50.872;5.306;2023-02-15T08:26:56;20.87;;;11.00;;
27187;SDS011;14708;50.872;5.306;2023-02-15T08:29:25;16.80;;;10.40;;
27187;SDS011;14708;50.872;5.306;2023-02-15T08:31:53;21.45;;;10.82;;
27187;SDS011;14708;50.872;5.306;2023-02-15T08:41:26;16.98;;;10.10;;
27187;SDS011;14708;50.872;5.306;2023-02-15T08:44:03;19.13;;;11.10;;
27187;SDS011;14708;50.872;5.306;2023-02-15T08:46:33;19.58;;;10.80;;
27187;SDS011;14708;50.872;5.306;2023-02-15T08:49:00;20.80;;;10.70;;
27187;SDS011;14708;50.872;5.306;2023-02-15T08:51:28;19.52;;;11.60;;
27187;SDS011;14708;50.872;5.306;2023-02-15T08:53:56;20.65;;;10.23;;
27187;SDS011;14708;50.872;5.306;2023-02-15T08:56:24;23.23;;;11.52;;
27187;SDS011;14708;50.872;5.306;2023-02-15T08:58:56;26.10;;;11.93;;
27187;SDS011;14708;50.872;5.306;2023-02-15T09:01:23;21.15;;;11.27;;
27187;SDS011;14708;50.872;5.306;2023-02-15T09:03:57;20.77;;;11.32;;
27187;SDS011;14708;50.872;5.306;2023-02-15T09:10:02;22.10;;;11.13;;
27187;SDS011;14708;50.872;5.306;2023-02-15T09:12:28;20.95;;;10.55;;
27187;SDS011;14708;50.872;5.306;2023-02-15T09:14:53;26.13;;;11.32;;
27187;SDS011;14708;50.872;5.306;2023-02-15T09:17:19;20.58;;;10.88;;
27187;SDS011;14708;50.872;5.306;2023-02-15T09:19:44;26.05;;;12.25;;
27187;SDS011;14708;50.872;5.306;2023-02-15T09:22:28;24.02;;;12.30;;
27187;SDS011;14708;50.872;5.306;2023-02-15T09:24:56;25.63;;;11.38;;
27187;SDS011;14708;50.872;5.306;2023-02-15T09:27:21;25.75;;;11.32;;
27187;SDS011;14708;50.872;5.306;2023-02-15T09:29:47;25.15;;;13.07;;
27187;SDS011;14708;50.872;5.306;2023-02-15T09:32:15;27.58;;;13.73;;
27187;SDS011;14708;50.872;5.306;2023-02-15T09:34:42;30.95;;;14.90;;
27187;SDS011;14708;50.872;5.306;2023-02-15T09:37:08;24.83;;;14.57;;
27187;SDS011;14708;50.872;5.306;2023-02-15T09:39:33;33.65;;;15.43;;
27187;SDS011;14708;50.872;5.306;2023-02-15T09:44:49;34.90;;;15.30;;
27187;SDS011;14708;50.872;5.306;2023-02-15T09:47:46;30.55;;;14.65;;
27187;SDS011;14708;50.872;5.306;2023-02-15T10:03:00;26.63;;;12.75;;
27187;SDS011;14708;50.872;5.306;2023-02-15T10:05:57;24.00;;;11.07;;
27187;SDS011;14708;50.872;5.306;2023-02-15T10:17:32;19.40;;;11.70;;
27187;SDS011;14708;50.872;5.306;2023-02-15T10:45:36;108.55;;;37.38;;
27187;SDS011;14708;50.872;5.306;2023-02-15T10:48:22;114.43;;;37.30;;
27187;SDS011;14708;50.872;5.306;2023-02-15T10:51:00;105.20;;;34.42;;
27187;SDS011;14708;50.872;5.306;2023-02-15T10:56:01;109.07;;;34.17;;
27187;SDS011;14708;50.872;5.306;2023-02-15T11:09:41;103.90;;;35.53;;
27187;SDS011;14708;50.872;5.306;2023-02-15T11:12:13;113.22;;;36.65;;
27187;SDS011;14708;50.872;5.306;2023-02-15T11:17:23;112.57;;;35.95;;
27187;SDS011;14708;50.872;5.306;2023-02-15T11:20:04;94.22;;;34.35;;
27187;SDS011;14708;50.872;5.306;2023-02-15T11:23:15;106.57;;;33.80;;
27187;SDS011;14708;50.872;5.306;2023-02-15T11:25:44;98.85;;;33.08;;
27187;SDS011;14708;50.872;5.306;2023-02-15T11:28:23;105.38;;;35.63;;
27187;SDS011;14708;50.872;5.306;2023-02-15T11:30:55;97.45;;;33.72;;
27187;SDS011;14708;50.872;5.306;2023-02-15T11:33:23;98.68;;;33.58;;
27187;SDS011;14708;50.872;5.306;2023-02-15T11:47:00;94.82;;;32.95;;
27187;SDS011;14708;50.872;5.306;2023-02-15T11:51:55;102.78;;;34.92;;
27187;SDS011;14708;50.872;5.306;2023-02-15T11:54:23;93.55;;;33.97;;
27187;SDS011;14708;50.872;5.306;2023-02-15T12:07:04;91.68;;;31.45;;
27187;SDS011;14708;50.872;5.306;2023-02-15T12:12:37;85.47;;;29.15;;
27187;SDS011;14708;50.872;5.306;2023-02-15T12:15:07;85.30;;;31.48;;
27187;SDS011;14708;50.872;5.306;2023-02-15T12:20:42;73.60;;;28.63;;
27187;SDS011;14708;50.872;5.306;2023-02-15T12:23:14;85.35;;;28.98;;
27187;SDS011;14708;50.872;5.306;2023-02-15T12:25:51;83.70;;;29.23;;
27187;SDS011;14708;50.872;5.306;2023-02-15T12:30:50;76.70;;;29.08;;
27187;SDS011;14708;50.872;5.306;2023-02-15T12:35:50;72.85;;;28.50;;
27187;SDS011;14708;50.872;5.306;2023-02-15T12:38:26;64.60;;;25.02;;
27187;SDS011;14708;50.872;5.306;2023-02-15T12:40:57;62.35;;;26.63;;
27187;SDS011;14708;50.872;5.306;2023-02-15T12:43:35;65.53;;;26.63;;
27187;SDS011;14708;50.872;5.306;2023-02-15T13:02:44;60.53;;;25.17;;
27187;SDS011;14708;50.872;5.306;2023-02-15T13:07:50;69.30;;;25.55;;
27187;SDS011;14708;50.872;5.306;2023-02-15T13:10:23;56.10;;;21.67;;
27187;SDS011;14708;50.872;5.306;2023-02-15T13:12:49;66.45;;;24.08;;
27187;SDS011;14708;50.872;5.306;2023-02-15T13:15:29;59.13;;;24.27;;
27187;SDS011;14708;50.872;5.306;2023-02-15T13:18:01;55.53;;;22.20;;
27187;SDS011;14708;50.872;5.306;2023-02-15T13:20:28;53.83;;;22.30;;
27187;SDS011;14708;50.872;5.306;2023-02-15T13:23:05;56.03;;;22.73;;
27187;SDS011;14708;50.872;5.306;2023-02-15T13:25:44;50.17;;;21.15;;
27187;SDS011;14708;50.872;5.306;2023-02-15T13:28:16;56.92;;;22.08;;
27187;SDS011;14708;50.872;5.306;2023-02-15T13:30:48;61.90;;;24.92;;
27187;SDS011;14708;50.872;5.306;2023-02-15T14:07:39;45.25;;;19.38;;
27187;SDS011;14708;50.872;5.306;2023-02-15T14:12:47;41.70;;;18.27;;
27187;SDS011;14708;50.872;5.306;2023-02-15T14:21:15;45.38;;;19.10;;
27187;SDS011;14708;50.872;5.306;2023-02-15T14:29:56;37.28;;;16.70;;
27187;SDS011;14708;50.872;5.306;2023-02-15T14:32:26;35.72;;;16.25;;
27187;SDS011;14708;50.872;5.306;2023-02-15T14:35:02;39.60;;;16.10;;
27187;SDS011;14708;50.872;5.306;2023-02-15T14:49:35;48.65;;;19.48;;
27187;SDS011;14708;50.872;5.306;2023-02-15T14:52:04;56.00;;;20.45;;
27187;SDS011;14708;50.872;5.306;2023-02-15T15:06:24;47.10;;;18.80;;
27187;SDS011;14708;50.872;5.306;2023-02-15T15:08:54;50.60;;;19.67;;
27187;SDS011;14708;50.872;5.306;2023-02-15T15:13:56;51.80;;;19.67;;
27187;SDS011;14708;50.872;5.306;2023-02-15T15:16:28;45.13;;;19.15;;
27187;SDS011;14708;50.872;5.306;2023-02-15T15:18:56;50.45;;;19.80;;
27187;SDS011;14708;50.872;5.306;2023-02-15T15:27:48;50.25;;;19.27;;
27187;SDS011;14708;50.872;5.306;2023-02-15T15:48:57;42.13;;;15.77;;
27187;SDS011;14708;50.872;5.306;2023-02-15T15:51:45;39.38;;;17.17;;
27187;SDS011;14708;50.872;5.306;2023-02-15T15:54:15;34.72;;;15.85;;
27187;SDS011;14708;50.872;5.306;2023-02-15T15:56:44;33.33;;;14.88;;
27187;SDS011;14708;50.872;5.306;2023-02-15T15:59:17;40.53;;;16.77;;
27187;SDS011;14708;50.872;5.306;2023-02-15T16:01:46;43.88;;;15.15;;
27187;SDS011;14708;50.872;5.306;2023-02-15T16:04:14;39.25;;;16.45;;
27187;SDS011;14708;50.872;5.306;2023-02-15T16:06:50;40.90;;;15.23;;
27187;SDS011;14708;50.872;5.306;2023-02-15T16:09:20;42.00;;;15.85;;
27187;SDS011;14708;50.872;5.306;2023-02-15T16:11:50;35.42;;;16.30;;
27187;SDS011;14708;50.872;5.306;2023-02-15T16:14:37;44.47;;;16.88;;
27187;SDS011;14708;50.872;5.306;2023-02-15T16:17:05;40.22;;;16.92;;
27187;SDS011;14708;50.872;5.306;2023-02-15T16:19:38;33.80;;;14.48;;
27187;SDS011;14708;50.872;5.306;2023-02-15T16:22:12;36.28;;;15.05;;
27187;SDS011;14708;50.872;5.306;2023-02-15T16:25:03;30.38;;;14.88;;
27187;SDS011;14708;50.872;5.306;2023-02-15T16:27:36;33.67;;;15.20;;
27187;SDS011;14708;50.872;5.306;2023-02-15T16:43:32;26.30;;;14.10;;
27187;SDS011;14708;50.872;5.306;2023-02-15T16:46:05;29.90;;;14.02;;
27187;SDS011;14708;50.872;5.306;2023-02-15T16:48:43;31.85;;;13.38;;
27187;SDS011;14708;50.872;5.306;2023-02-15T16:51:18;25.50;;;13.40;;
27187;SDS011;14708;50.872;5.306;2023-02-15T16:53:49;26.83;;;14.85;;
27187;SDS011;14708;50.872;5.306;2023-02-15T16:56:19;27.42;;;13.82;;
27187;SDS011;14708;50.872;5.306;2023-02-15T16:58:52;23.05;;;12.32;;
27187;SDS011;14708;50.872;5.306;2023-02-15T17:01:20;22.88;;;12.75;;
27187;SDS011;14708;50.872;5.306;2023-02-15T17:03:49;25.83;;;11.82;;
27187;SDS011;14708;50.872;5.306;2023-02-15T17:06:20;24.92;;;12.05;;
27187;SDS011;14708;50.872;5.306;2023-02-15T17:09:02;23.80;;;12.35;;
27187;SDS011;14708;50.872;5.306;2023-02-15T17:11:34;24.70;;;11.73;;
27187;SDS011;14708;50.872;5.306;2023-02-15T17:16:36;27.73;;;11.98;;
27187;SDS011;14708;50.872;5.306;2023-02-15T17:19:13;25.33;;;12.75;;
27187;SDS011;14708;50.872;5.306;2023-02-15T17:22:24;27.40;;;11.27;;
27187;SDS011;14708;50.872;5.306;2023-02-15T17:25:01;25.83;;;13.15;;
27187;SDS011;14708;50.872;5.306;2023-02-15T17:27:29;17.83;;;10.57;;
27187;SDS011;14708;50.872;5.306;2023-02-15T17:29:59;20.50;;;10.40;;
27187;SDS011;14708;50.872;5.306;2023-02-15T17:32:28;19.23;;;10.27;;
27187;SDS011;14708;50.872;5.306;2023-02-15T17:35:06;20.20;;;10.80;;
27187;SDS011;14708;50.872;5.306;2023-02-15T17:37:42;18.63;;;10.50;;
27187;SDS011;14708;50.872;5.306;2023-02-15T17:42:44;22.70;;;10.68;;
27187;SDS011;14708;50.872;5.306;2023-02-15T17:45:12;23.40;;;11.20;;
27187;SDS011;14708;50.872;5.306;2023-02-15T17:47:38;24.55;;;11.73;;
27187;SDS011;14708;50.872;5.306;2023-02-15T17:50:05;22.33;;;10.93;;
27187;SDS011;14708;50.872;5.306;2023-02-15T17:52:32;22.15;;;11.20;;
27187;SDS011;14708;50.872;5.306;2023-02-15T17:55:01;19.30;;;9.73;;
27187;SDS011;14708;50.872;5.306;2023-02-15T17:58:00;20.27;;;10.23;;
27187;SDS011;14708;50.872;5.306;2023-02-15T18:00:27;19.15;;;10.10;;
27187;SDS011;14708;50.872;5.306;2023-02-15T18:03:12;18.27;;;10.35;;
27187;SDS011;14708;50.872;5.306;2023-02-15T18:05:58;19.83;;;10.05;;
27187;SDS011;14708;50.872;5.306;2023-02-15T18:08:42;18.58;;;10.20;;
27187;SDS011;14708;50.872;5.306;2023-02-15T18:11:27;24.10;;;10.68;;
27187;SDS011;14708;50.872;5.306;2023-02-15T18:14:00;22.52;;;10.93;;
27187;SDS011;14708;50.872;5.306;2023-02-15T18:16:26;19.52;;;9.63;;
27187;SDS011;14708;50.872;5.306;2023-02-15T18:18:57;20.60;;;10.00;;
27187;SDS011;14708;50.872;5.306;2023-02-15T18:21:23;21.98;;;10.13;;
27187;SDS011;14708;50.872;5.306;2023-02-15T18:23:49;17.45;;;9.45;;
27187;SDS011;14708;50.872;5.306;2023-02-15T18:29:37;22.58;;;9.77;;
27187;SDS011;14708;50.872;5.306;2023-02-15T18:32:16;18.25;;;9.60;;
27187;SDS011;14708;50.872;5.306;2023-02-15T18:34:47;17.13;;;8.52;;
27187;SDS011;14708;50.872;5.306;2023-02-15T18:37:17;18.05;;;9.13;;
27187;SDS011;14708;50.872;5.306;2023-02-15T18:39:45;17.75;;;9.48;;
27187;SDS011;14708;50.872;5.306;2023-02-15T18:42:34;17.58;;;10.02;;
27187;SDS011;14708;50.872;5.306;2023-02-15T18:45:00;19.35;;;8.80;;
27187;SDS011;14708;50.872;5.306;2023-02-15T18:47:53;16.52;;;8.32;;
27187;SDS011;14708;50.872;5.306;2023-02-15T18:50:19;19.33;;;9.07;;
27187;SDS011;14708;50.872;5.306;2023-02-15T18:52:46;18.98;;;8.73;;
27187;SDS011;14708;50.872;5.306;2023-02-15T18:55:16;14.57;;;7.88;;
27187;SDS011;14708;50.872;5.306;2023-02-15T18:57:47;16.35;;;9.05;;
27187;SDS011;14708;50.872;5.306;2023-02-15T19:02:41;19.90;;;9.48;;
27187;SDS011;14708;50.872;5.306;2023-02-15T19:05:07;18.75;;;9.40;;
27187;SDS011;14708;50.872;5.306;2023-02-15T19:07:35;18.58;;;8.18;;
27187;SDS011;14708;50.872;5.306;2023-02-15T19:10:01;16.67;;;8.77;;
27187;SDS011;14708;50.872;5.306;2023-02-15T19:12:30;16.35;;;9.63;;
27187;SDS011;14708;50.872;5.306;2023-02-15T19:18:33;12.88;;;7.78;;
27187;SDS011;14708;50.872;5.306;2023-02-15T19:20:58;16.15;;;8.55;;
27187;SDS011;14708;50.872;5.306;2023-02-15T19:23:24;14.63;;;8.15;;
27187;SDS011;14708;50.872;5.306;2023-02-15T19:25:50;15.52;;;8.27;;
27187;SDS011;14708;50.872;5.306;2023-02-15T19:28:20;13.55;;;7.93;;
27187;SDS011;14708;50.872;5.306;2023-02-15T19:30:56;16.08;;;7.75;;
27187;SDS011;14708;50.872;5.306;2023-02-15T19:33:21;16.70;;;8.32;;
27187;SDS011;14708;50.872;5.306;2023-02-15T19:35:48;16.08;;;8.40;;
27187;SDS011;14708;50.872;5.306;2023-02-15T19:41:46;15.20;;;7.82;;
27187;SDS011;14708;50.872;5.306;2023-02-15T19:44:11;16.80;;;8.75;;
27187;SDS011;14708;50.872;5.306;2023-02-15T19:46:37;14.07;;;8.50;;
27187;SDS011;14708;50.872;5.306;2023-02-15T19:49:03;13.48;;;8.23;;
27187;SDS011;14708;50.872;5.306;2023-02-15T19:51:28;13.63;;;8.13;;
27187;SDS011;14708;50.872;5.306;2023-02-15T20:07:30;13.43;;;8.02;;
27187;SDS011;14708;50.872;5.306;2023-02-15T20:09:56;16.10;;;7.43;;
27187;SDS011;14708;50.872;5.306;2023-02-15T20:12:22;16.30;;;8.50;;
27187;SDS011;14708;50.872;5.306;2023-02-15T20:14:50;13.85;;;7.97;;
27187;SDS011;14708;50.872;5.306;2023-02-15T20:17:16;13.23;;;7.28;;
27187;SDS011;14708;50.872;5.306;2023-02-15T20:19:42;13.30;;;7.57;;
27187;SDS011;14708;50.872;5.306;2023-02-15T20:22:16;12.93;;;7.05;;
27187;SDS011;14708;50.872;5.306;2023-02-15T20:24:49;10.38;;;6.82;;
27187;SDS011;14708;50.872;5.306;2023-02-15T20:27:23;12.55;;;8.15;;
27187;SDS011;14708;50.872;5.306;2023-02-15T20:29:53;15.77;;;8.60;;
27187;SDS011;14708;50.872;5.306;2023-02-15T20:32:22;13.68;;;7.60;;
27187;SDS011;14708;50.872;5.306;2023-02-15T20:34:47;11.95;;;7.60;;
27187;SDS011;14708;50.872;5.306;2023-02-15T20:37:23;11.43;;;6.97;;
27187;SDS011;14708;50.872;5.306;2023-02-15T20:39:53;10.90;;;7.72;;
27187;SDS011;14708;50.872;5.306;2023-02-15T20:42:19;12.65;;;6.57;;
27187;SDS011;14708;50.872;5.306;2023-02-15T20:44:44;11.27;;;7.05;;
27187;SDS011;14708;50.872;5.306;2023-02-15T20:47:10;14.85;;;8.18;;
27187;SDS011;14708;50.872;5.306;2023-02-15T20:49:36;8.98;;;6.53;;
27187;SDS011;14708;50.872;5.306;2023-02-15T20:52:02;13.63;;;7.38;;
27187;SDS011;14708;50.872;5.306;2023-02-15T20:54:38;12.10;;;8.20;;
27187;SDS011;14708;50.872;5.306;2023-02-15T20:57:04;13.82;;;7.13;;
27187;SDS011;14708;50.872;5.306;2023-02-15T20:59:31;11.70;;;7.15;;
27187;SDS011;14708;50.872;5.306;2023-02-15T21:01:59;10.88;;;6.70;;
27187;SDS011;14708;50.872;5.306;2023-02-15T21:04:30;12.40;;;7.15;;
27187;SDS011;14708;50.872;5.306;2023-02-15T21:06:57;12.27;;;6.90;;
27187;SDS011;14708;50.872;5.306;2023-02-15T21:09:24;10.45;;;6.75;;
27187;SDS011;14708;50.872;5.306;2023-02-15T21:22:11;13.57;;;8.00;;
27187;SDS011;14708;50.872;5.306;2023-02-15T21:24:38;12.02;;;7.25;;
27187;SDS011;14708;50.872;5.306;2023-02-15T21:27:08;12.30;;;7.70;;
27187;SDS011;14708;50.872;5.306;2023-02-15T21:29:37;10.93;;;6.87;;
27187;SDS011;14708;50.872;5.306;2023-02-15T21:32:02;9.13;;;6.30;;
27187;SDS011;14708;50.872;5.306;2023-02-15T21:34:29;10.48;;;7.03;;
27187;SDS011;14708;50.872;5.306;2023-02-15T21:36:55;15.00;;;7.53;;
27187;SDS011;14708;50.872;5.306;2023-02-15T21:39:21;11.82;;;6.50;;
27187;SDS011;14708;50.872;5.306;2023-02-15T21:41:50;10.57;;;7.00;;
27187;SDS011;14708;50.872;5.306;2023-02-15T21:44:35;10.45;;;6.43;;
27187;SDS011;14708;50.872;5.306;2023-02-15T21:47:33;11.10;;;6.63;;
27187;SDS011;14708;50.872;5.306;2023-02-15T21:50:21;11.68;;;7.10;;
27187;SDS011;14708;50.872;5.306;2023-02-15T21:53:09;9.90;;;6.47;;